createdAt,value
2023-03-28T00:02:14.991Z,96154.00
2023-03-28T00:07:43.225Z,96152.00
2023-03-28T00:13:14.186Z,96151.00
2023-03-28T00:18:42.813Z,96165.00
2023-03-28T00:24:13.956Z,96165.00
2023-03-28T00:29:42.507Z,96170.00
2023-03-28T00:35:10.752Z,96179.00
2023-03-28T00:40:38.984Z,96184.00
2023-03-28T00:46:36.396Z,96188.00
2023-03-28T00:52:05.243Z,96190.00
2023-03-28T00:57:33.780Z,96190.00
2023-03-28T01:03:02.725Z,96198.00
2023-03-28T01:08:34.799Z,96198.00
2023-03-28T01:14:04.574Z,96187.00
2023-03-28T01:20:08.832Z,96174.00
2023-03-28T01:26:23.126Z,96204.00
2023-03-28T01:32:34.708Z,96203.00
2023-03-28T01:38:23.891Z,96205.00
2023-03-28T01:44:37.474Z,96195.00
2023-03-28T01:50:39.825Z,96206.00
2023-03-28T01:56:18.787Z,96209.00
2023-03-28T02:02:03.283Z,96212.00
2023-03-28T02:07:33.935Z,96211.00
2023-03-28T02:13:17.657Z,96219.00
2023-03-28T02:19:06.414Z,96215.00
2023-03-28T02:24:34.567Z,96233.00
2023-03-28T02:30:27.367Z,96234.00
2023-03-28T02:36:18.636Z,96236.00
2023-03-28T02:42:35.353Z,96233.00
2023-03-28T02:48:39.517Z,96247.00
2023-03-28T02:54:31.607Z,96241.00
2023-03-28T03:00:22.962Z,96249.00
2023-03-28T03:05:51.185Z,96250.00
2023-03-28T03:11:19.835Z,96252.00
2023-03-28T03:16:48.954Z,96248.00
2023-03-28T03:22:20.520Z,96259.00
2023-03-28T03:27:53.076Z,96258.00
2023-03-28T03:33:22.332Z,96263.00
2023-03-28T03:38:56.568Z,96266.00
2023-03-28T03:44:25.864Z,96276.00
2023-03-28T03:49:54.714Z,96282.00
2023-03-28T03:55:23.014Z,96290.00
2023-03-28T04:00:52.140Z,96305.00
2023-03-28T04:06:39.182Z,96298.00
2023-03-28T04:12:10.205Z,96309.00
2023-03-28T04:17:56.904Z,96299.00
2023-03-28T04:23:26.981Z,96304.00
2023-03-28T04:28:57.229Z,96313.00
2023-03-28T04:34:29.976Z,96319.00
2023-03-28T04:40:12.626Z,96325.00
2023-03-28T04:46:01.676Z,96329.00
2023-03-28T04:51:30.604Z,96324.00
2023-03-28T04:56:59.085Z,96333.00
2023-03-28T05:02:37.932Z,96323.00
2023-03-28T05:08:07.089Z,96333.00
2023-03-28T05:13:35.548Z,96337.00
2023-03-28T05:19:12.782Z,96345.00
2023-03-28T05:25:06.539Z,96354.00
2023-03-28T05:30:37.472Z,96361.00
2023-03-28T05:36:07.300Z,96362.00
2023-03-28T05:41:35.507Z,96369.00
2023-03-28T05:47:03.636Z,96367.00
2023-03-28T05:52:31.739Z,96375.00
2023-03-28T05:58:00.041Z,96390.00
2023-03-28T06:03:40.201Z,96396.00
2023-03-28T06:09:08.757Z,96398.00
2023-03-28T06:14:51.931Z,96404.00
2023-03-28T06:20:26.459Z,96413.00
2023-03-28T06:25:56.360Z,96409.00
2023-03-28T06:31:26.108Z,96426.00
2023-03-28T06:36:54.434Z,96431.00
2023-03-28T06:42:22.526Z,96436.00
2023-03-28T06:47:59.823Z,96437.00
2023-03-28T06:53:47.663Z,96452.00
2023-03-28T06:59:17.918Z,96460.00
2023-03-28T07:04:51.074Z,96465.00
2023-03-28T07:10:19.373Z,96463.00
2023-03-28T07:15:47.496Z,96477.00
2023-03-28T07:21:17.999Z,96486.00
2023-03-28T07:26:46.238Z,96487.00
2023-03-28T07:32:14.878Z,96496.00
2023-03-28T07:37:47.510Z,96511.00
2023-03-28T07:43:31.932Z,96520.00
2023-03-28T07:49:00.950Z,96513.00
2023-03-28T07:54:29.484Z,96522.00
2023-03-28T07:59:57.971Z,96535.00
2023-03-28T08:05:27.705Z,96519.00
2023-03-28T08:10:55.915Z,96532.00
2023-03-28T08:16:24.002Z,96537.00
2023-03-28T08:21:53.582Z,96535.00
2023-03-28T08:27:22.888Z,96538.00
2023-03-28T08:32:55.279Z,96539.00
2023-03-28T08:38:24.228Z,96537.00
2023-03-28T08:44:11.045Z,96555.00
2023-03-28T08:50:12.847Z,96554.00
2023-03-28T08:55:43.298Z,96554.00
2023-03-28T09:01:11.532Z,96565.00
2023-03-28T09:06:41.864Z,96558.00
2023-03-28T09:13:26.813Z,96560.00
2023-03-28T09:19:48.335Z,96561.00
2023-03-28T09:25:52.685Z,96570.00
2023-03-28T09:31:49.747Z,96572.00
2023-03-28T09:37:41.929Z,96560.00
2023-03-28T09:43:54.097Z,96560.00
2023-03-28T09:49:44.591Z,96547.00
2023-03-28T09:55:23.283Z,96560.00
2023-03-28T10:00:55.171Z,96563.00
2023-03-28T10:06:48.210Z,96559.00
2023-03-28T10:12:37.952Z,96559.00
2023-03-28T10:18:07.171Z,96567.00
2023-03-28T10:23:56.382Z,96562.00
2023-03-28T10:29:24.721Z,96564.00
2023-03-28T10:35:07.712Z,96548.00
2023-03-28T10:40:59.151Z,96560.00
2023-03-28T10:46:49.591Z,96565.00
2023-03-28T10:52:48.241Z,96556.00
2023-03-28T10:58:41.479Z,96558.00
2023-03-28T11:04:44.648Z,96558.00
2023-03-28T11:11:03.201Z,96545.00
2023-03-28T11:16:55.370Z,96549.00
2023-03-28T11:23:20.400Z,96544.00
2023-03-28T11:29:44.424Z,96531.00
2023-03-28T11:35:31.855Z,96541.00
2023-03-28T11:41:14.067Z,96552.00
2023-03-28T11:47:23.803Z,96532.00
2023-03-28T11:53:16.892Z,96515.00
2023-03-28T11:59:13.938Z,96519.00
2023-03-28T12:07:10.409Z,96512.00
2023-03-28T12:12:47.208Z,96512.00
2023-03-28T12:18:41.372Z,96498.00
2023-03-28T12:24:14.459Z,96494.00
2023-03-28T12:30:00.403Z,96495.00
2023-03-28T12:35:45.257Z,96489.00
2023-03-28T12:41:21.342Z,96476.00
2023-03-28T12:47:10.233Z,96492.00
2023-03-28T12:52:43.911Z,96485.00
2023-03-28T12:58:28.570Z,96489.00
2023-03-28T13:04:37.387Z,96474.00
2023-03-28T13:10:25.328Z,96485.00
2023-03-28T13:16:27.310Z,96474.00
2023-03-28T13:21:57.960Z,96463.00
2023-03-28T13:27:33.864Z,96462.00
2023-03-28T13:33:28.868Z,96464.00
2023-03-28T13:39:25.349Z,96451.00
2023-03-28T13:44:59.889Z,96458.00
2023-03-28T13:50:31.064Z,96440.00
2023-03-28T13:56:30.954Z,96439.00
2023-03-28T14:02:02.268Z,96414.00
2023-03-28T14:07:30.989Z,96410.00
2023-03-28T14:13:23.013Z,96414.00
2023-03-28T14:18:51.563Z,96400.00
2023-03-28T14:24:25.231Z,96381.00
2023-03-28T14:29:59.401Z,96388.00
2023-03-28T14:35:33.614Z,96374.00
2023-03-28T14:41:21.352Z,96397.00
2023-03-28T14:46:49.869Z,96398.00
2023-03-28T14:52:30.839Z,96407.00
2023-03-28T14:58:00.614Z,96401.00
2023-03-28T15:03:39.679Z,96401.00
2023-03-28T15:09:27.638Z,96401.00
2023-03-28T15:14:55.868Z,96414.00
2023-03-28T15:20:35.217Z,96404.00
2023-03-28T15:26:09.706Z,96408.00
2023-03-28T15:31:41.049Z,96398.00
2023-03-28T15:37:20.656Z,96400.00
2023-03-28T15:42:51.158Z,96398.00
2023-03-28T15:48:23.995Z,96383.00
2023-03-28T15:53:52.223Z,96389.00
2023-03-28T15:59:42.411Z,96376.00
2023-03-28T16:05:10.702Z,96382.00
2023-03-28T16:10:39.048Z,96366.00
2023-03-28T16:16:29.088Z,96359.00
2023-03-28T16:22:10.144Z,96373.00
2023-03-28T16:27:39.064Z,96368.00
2023-03-28T16:33:07.893Z,96359.00
2023-03-28T16:38:36.236Z,96362.00
2023-03-28T16:44:05.054Z,96366.00
2023-03-28T16:49:32.956Z,96365.00
2023-03-28T16:55:01.115Z,96367.00
2023-03-28T17:00:29.490Z,96363.00
2023-03-28T17:06:05.934Z,96357.00
2023-03-28T17:11:34.825Z,96353.00
2023-03-28T17:17:03.275Z,96338.00
2023-03-28T17:22:31.528Z,96337.00
2023-03-28T17:28:00.771Z,96331.00
2023-03-28T17:33:31.282Z,96332.00
2023-03-28T17:39:03.607Z,96331.00
2023-03-28T17:44:32.809Z,96329.00
2023-03-28T17:50:01.429Z,96327.00
2023-03-28T17:55:33.402Z,96320.00
2023-03-28T18:01:01.731Z,96325.00
2023-03-28T18:06:29.869Z,96323.00
2023-03-28T18:11:57.982Z,96316.00
2023-03-28T18:17:26.252Z,96312.00
2023-03-28T18:22:54.889Z,96306.00
2023-03-28T18:28:26.572Z,96299.00
2023-03-28T18:33:54.670Z,96295.00
2023-03-28T18:39:23.799Z,96284.00
2023-03-28T18:44:52.762Z,96289.00
2023-03-28T18:50:21.276Z,96281.00
2023-03-28T18:55:49.689Z,96277.00
2023-03-28T19:01:18.864Z,96266.00
2023-03-28T19:06:47.485Z,96258.00
2023-03-28T19:12:16.461Z,96264.00
2023-03-28T19:17:44.484Z,96264.00
2023-03-28T19:23:12.745Z,96255.00
2023-03-28T19:28:41.673Z,96265.00
2023-03-28T19:34:17.057Z,96250.00
2023-03-28T19:39:45.330Z,96233.00
2023-03-28T19:45:13.929Z,96232.00
2023-03-28T19:50:43.109Z,96221.00
2023-03-28T19:56:12.118Z,96214.00
2023-03-28T20:01:40.232Z,96202.00
2023-03-28T20:07:08.473Z,96213.00
2023-03-28T20:12:40.016Z,96202.00
2023-03-28T20:18:14.537Z,96197.00
2023-03-28T20:23:42.996Z,96180.00
2023-03-28T20:29:14.004Z,96186.00
2023-03-28T20:34:42.264Z,96189.00
2023-03-28T20:40:11.795Z,96186.00
2023-03-28T20:45:39.765Z,96182.00
2023-03-28T20:51:14.699Z,96188.00
2023-03-28T20:56:43.066Z,96181.00
2023-03-28T21:02:12.562Z,96184.00
2023-03-28T21:07:41.325Z,96178.00
2023-03-28T21:13:09.180Z,96173.00
2023-03-28T21:18:37.716Z,96167.00
2023-03-28T21:24:07.395Z,96163.00
2023-03-28T21:29:35.279Z,96154.00
2023-03-28T21:35:05.430Z,96133.00
2023-03-28T21:40:33.678Z,96131.00
2023-03-28T21:46:02.371Z,96131.00
2023-03-28T21:51:31.735Z,96135.00
2023-03-28T21:56:59.846Z,96132.00
2023-03-28T22:02:28.093Z,96127.00
2023-03-28T22:07:56.011Z,96124.00
2023-03-28T22:13:24.658Z,96104.00
2023-03-28T22:18:55.136Z,96107.00
2023-03-28T22:24:24.586Z,96098.00
2023-03-28T22:29:52.829Z,96100.00
2023-03-28T22:35:21.738Z,96088.00
2023-03-28T22:40:50.095Z,96084.00
2023-03-28T22:46:18.286Z,96082.00
2023-03-28T22:51:46.577Z,96080.00
2023-03-28T22:57:14.605Z,96076.00
2023-03-28T23:02:42.678Z,96078.00
2023-03-28T23:08:11.269Z,96089.00
2023-03-28T23:13:39.050Z,96088.00
2023-03-28T23:19:07.381Z,96081.00
2023-03-28T23:24:37.049Z,96093.00
2023-03-28T23:30:06.490Z,96104.00
2023-03-28T23:35:34.277Z,96107.00
2023-03-28T23:41:02.741Z,96113.00
2023-03-28T23:46:31.045Z,96091.00
2023-03-28T23:51:59.106Z,96076.00
2023-03-28T23:57:28.718Z,96104.00
